createdAt,value
2019-03-19T00:01:17.783Z,0.60
2019-03-19T00:03:46.561Z,0.60
2019-03-19T00:06:15.906Z,0.60
2019-03-19T00:08:44.685Z,0.50
2019-03-19T00:11:13.667Z,0.50
2019-03-19T00:13:42.463Z,0.40
2019-03-19T00:16:11.604Z,0.40
2019-03-19T00:18:40.536Z,0.40
2019-03-19T00:21:09.313Z,0.50
2019-03-19T00:23:38.783Z,0.60
2019-03-19T00:26:07.566Z,0.60
2019-03-19T00:28:36.344Z,0.70
2019-03-19T00:31:05.672Z,0.70
2019-03-19T00:33:34.798Z,0.80
2019-03-19T00:36:04.013Z,0.80
2019-03-19T00:38:32.826Z,0.80
2019-03-19T00:41:01.951Z,0.90
2019-03-19T00:43:30.804Z,0.90
2019-03-19T00:46:00.066Z,1.00
2019-03-19T00:48:28.835Z,1.00
2019-03-19T00:50:58.220Z,1.00
2019-03-19T00:53:27.089Z,1.00
2019-03-19T00:55:55.887Z,1.00
2019-03-19T00:58:24.961Z,1.00
2019-03-19T01:00:53.738Z,1.00
2019-03-19T01:03:22.644Z,1.10
2019-03-19T01:05:51.431Z,1.10
2019-03-19T01:08:20.228Z,1.10
2019-03-19T01:10:49.006Z,1.10
2019-03-19T01:13:18.110Z,1.10
2019-03-19T01:15:46.902Z,1.10
2019-03-19T01:18:15.818Z,1.10
2019-03-19T01:20:44.985Z,1.10
2019-03-19T01:23:13.850Z,1.10
2019-03-19T01:25:54.827Z,1.00
2019-03-19T01:28:13.573Z,1.00
2019-03-19T01:30:42.378Z,1.00
2019-03-19T01:33:11.233Z,1.00
2019-03-19T01:35:40.045Z,0.90
2019-03-19T01:38:08.895Z,0.90
2019-03-19T01:40:37.745Z,1.00
2019-03-19T01:43:06.603Z,1.00
2019-03-19T01:45:35.396Z,1.00
2019-03-19T01:48:04.339Z,1.10
2019-03-19T01:50:33.123Z,1.10
2019-03-19T01:53:02.033Z,1.10
2019-03-19T01:55:31.257Z,1.10
2019-03-19T01:58:00.472Z,1.00
2019-03-19T02:00:29.655Z,1.10
2019-03-19T02:02:58.698Z,1.20
2019-03-19T02:05:27.455Z,1.10
2019-03-19T02:07:56.291Z,1.10
2019-03-19T02:10:25.292Z,1.10
2019-03-19T02:12:54.084Z,1.00
2019-03-19T02:15:23.004Z,1.00
2019-03-19T02:17:51.882Z,1.00
2019-03-19T02:20:21.128Z,0.90
2019-03-19T02:22:49.980Z,1.00
2019-03-19T02:25:18.756Z,1.00
2019-03-19T02:27:47.628Z,1.10
2019-03-19T02:30:16.554Z,1.00
2019-03-19T02:32:45.307Z,1.00
2019-03-19T02:35:14.516Z,1.00
2019-03-19T02:37:43.819Z,1.00
2019-03-19T02:40:12.852Z,1.00
2019-03-19T02:42:41.739Z,1.10
2019-03-19T02:45:10.962Z,1.00
2019-03-19T02:47:39.822Z,1.00
2019-03-19T02:50:09.386Z,0.90
2019-03-19T02:52:38.515Z,0.90
2019-03-19T02:55:08.269Z,0.90
2019-03-19T02:57:37.094Z,0.90
2019-03-19T03:00:06.736Z,0.90
2019-03-19T03:02:35.929Z,0.90
2019-03-19T03:05:06.073Z,0.80
2019-03-19T03:07:34.818Z,0.70
2019-03-19T03:10:03.778Z,0.60
2019-03-19T03:12:32.769Z,0.60
2019-03-19T03:15:01.871Z,0.60
2019-03-19T03:17:30.655Z,0.60
2019-03-19T03:19:59.731Z,0.50
2019-03-19T03:22:28.816Z,0.50
2019-03-19T03:24:57.934Z,0.40
2019-03-19T03:27:26.851Z,0.50
2019-03-19T03:29:55.884Z,0.40
2019-03-19T03:32:24.887Z,0.20
2019-03-19T03:34:53.670Z,0.20
2019-03-19T03:37:22.421Z,0.10
2019-03-19T03:39:51.295Z,0.10
2019-03-19T03:42:20.126Z,0.00
2019-03-19T03:44:49.034Z,-0.10
2019-03-19T03:47:18.117Z,-0.10
2019-03-19T03:49:46.872Z,-0.10
2019-03-19T03:52:15.946Z,-0.10
2019-03-19T03:54:44.790Z,-0.20
2019-03-19T03:57:13.638Z,-0.30
2019-03-19T03:59:42.549Z,-0.30
2019-03-19T04:02:11.345Z,-0.40
2019-03-19T04:04:40.563Z,-0.40
2019-03-19T04:07:09.437Z,-0.40
2019-03-19T04:09:38.544Z,-0.40
2019-03-19T04:12:07.681Z,-0.50
2019-03-19T04:14:36.494Z,-0.50
2019-03-19T04:17:05.515Z,-0.60
2019-03-19T04:19:34.409Z,-0.60
2019-03-19T04:22:03.607Z,-0.60
2019-03-19T04:24:32.454Z,-0.60
2019-03-19T04:27:14.940Z,-0.50
2019-03-19T04:29:32.438Z,-0.50
2019-03-19T04:32:01.953Z,-0.60
2019-03-19T04:34:31.069Z,-0.60
2019-03-19T04:37:00.137Z,-0.60
2019-03-19T04:39:29.010Z,-0.70
2019-03-19T04:41:57.777Z,-0.80
2019-03-19T04:44:26.887Z,-0.90
2019-03-19T04:46:55.953Z,-0.90
2019-03-19T04:49:24.709Z,-0.90
2019-03-19T04:51:53.473Z,-0.90
2019-03-19T04:54:22.260Z,-0.90
2019-03-19T04:56:51.311Z,-1.00
2019-03-19T04:59:20.284Z,-0.90
2019-03-19T05:01:49.044Z,-0.80
2019-03-19T05:04:17.887Z,-0.90
2019-03-19T05:06:46.641Z,-0.90
2019-03-19T05:09:15.403Z,-0.90
2019-03-19T05:11:44.370Z,-0.90
2019-03-19T05:14:13.635Z,-1.00
2019-03-19T05:16:42.458Z,-1.00
2019-03-19T05:19:11.204Z,-1.00
2019-03-19T05:21:39.957Z,-0.90
2019-03-19T05:24:08.845Z,-1.00
2019-03-19T05:26:37.701Z,-1.00
2019-03-19T05:29:06.685Z,-1.00
2019-03-19T05:31:35.517Z,-0.80
2019-03-19T05:34:04.592Z,-0.80
2019-03-19T05:36:33.357Z,-0.90
2019-03-19T05:39:02.125Z,-0.90
2019-03-19T05:41:31.169Z,-1.00
2019-03-19T05:43:59.934Z,-1.00
2019-03-19T05:46:28.764Z,-1.00
2019-03-19T05:48:59.816Z,-1.00
2019-03-19T05:51:29.062Z,-1.00
2019-03-19T05:53:57.823Z,-1.00
2019-03-19T05:56:26.572Z,-1.00
2019-03-19T05:58:55.353Z,-1.00
2019-03-19T06:01:24.495Z,-0.90
2019-03-19T06:03:53.286Z,-0.90
2019-03-19T06:06:22.048Z,-0.80
2019-03-19T06:08:51.141Z,-0.80
2019-03-19T06:11:19.908Z,-0.80
2019-03-19T06:13:48.755Z,-0.70
2019-03-19T06:16:17.543Z,-0.70
2019-03-19T06:18:46.325Z,-0.70
2019-03-19T06:21:15.085Z,-0.50
2019-03-19T06:23:44.118Z,-0.40
2019-03-19T06:26:12.958Z,-0.30
2019-03-19T06:28:41.977Z,-0.30
2019-03-19T06:31:10.750Z,-0.30
2019-03-19T06:33:39.555Z,-0.30
2019-03-19T06:36:08.366Z,-0.20
2019-03-19T06:38:37.238Z,-0.20
2019-03-19T06:41:06.087Z,-0.10
2019-03-19T06:43:34.926Z,0.10
2019-03-19T06:46:03.694Z,0.20
2019-03-19T06:48:34.972Z,0.30
2019-03-19T06:51:03.415Z,0.40
2019-03-19T06:53:32.191Z,0.50
2019-03-19T06:56:03.820Z,0.50
2019-03-19T06:58:32.562Z,0.60
2019-03-19T07:01:01.365Z,0.60
2019-03-19T07:03:30.130Z,0.80
2019-03-19T07:05:58.898Z,0.80
2019-03-19T07:08:27.663Z,0.90
2019-03-19T07:10:56.424Z,1.00
2019-03-19T07:13:25.543Z,1.10
2019-03-19T07:15:55.003Z,1.30
2019-03-19T07:18:24.185Z,1.40
2019-03-19T07:20:52.945Z,1.60
2019-03-19T07:23:21.777Z,1.60
2019-03-19T07:25:50.529Z,1.80
2019-03-19T07:28:22.265Z,1.90
2019-03-19T07:30:50.392Z,2.10
2019-03-19T07:33:38.362Z,2.40
2019-03-19T07:36:07.457Z,2.70
2019-03-19T07:38:36.484Z,3.00
2019-03-19T07:41:06.103Z,3.20
2019-03-19T07:43:35.450Z,3.40
2019-03-19T07:46:04.814Z,3.60
2019-03-19T07:48:33.538Z,3.80
2019-03-19T07:51:02.280Z,4.00
2019-03-19T07:53:31.016Z,4.30
2019-03-19T07:55:59.881Z,4.50
2019-03-19T07:58:40.571Z,4.80
2019-03-19T08:00:59.983Z,4.90
2019-03-19T08:03:28.915Z,5.20
2019-03-19T08:05:58.390Z,7.10
2019-03-19T08:08:27.545Z,10.30
2019-03-19T08:10:56.348Z,12.50
2019-03-19T08:13:25.109Z,14.90
2019-03-19T08:15:53.842Z,16.80
2019-03-19T08:18:22.600Z,16.80
2019-03-19T08:20:51.548Z,17.00
2019-03-19T08:23:20.278Z,18.10
2019-03-19T08:25:49.021Z,18.90
2019-03-19T08:28:17.780Z,18.80
2019-03-19T08:30:46.789Z,19.00
2019-03-19T08:33:15.886Z,19.30
2019-03-19T08:35:44.647Z,18.80
2019-03-19T08:38:13.677Z,19.50
2019-03-19T08:40:42.531Z,20.20
2019-03-19T08:43:11.376Z,20.70
2019-03-19T08:45:40.140Z,20.70
2019-03-19T08:48:08.877Z,20.80
2019-03-19T08:50:37.676Z,20.70
2019-03-19T08:53:06.915Z,21.10
2019-03-19T08:55:35.660Z,21.10
2019-03-19T08:58:04.520Z,21.00
2019-03-19T09:00:33.248Z,21.60
2019-03-19T09:03:02.502Z,22.00
2019-03-19T09:05:31.724Z,22.10
2019-03-19T09:08:00.544Z,22.30
2019-03-19T09:10:29.305Z,22.50
2019-03-19T09:12:58.133Z,22.20
2019-03-19T09:15:26.925Z,21.80
2019-03-19T09:17:55.732Z,20.50
2019-03-19T09:20:24.628Z,20.20
2019-03-19T09:22:53.520Z,19.70
2019-03-19T09:25:22.336Z,20.70
2019-03-19T09:27:51.519Z,21.00
2019-03-19T09:30:20.353Z,20.20
2019-03-19T09:32:49.167Z,20.90
2019-03-19T09:35:17.903Z,21.50
2019-03-19T09:37:57.753Z,21.70
2019-03-19T09:40:17.444Z,21.50
2019-03-19T09:42:46.254Z,20.60
2019-03-19T09:45:15.608Z,19.40
2019-03-19T09:47:45.599Z,18.40
2019-03-19T09:50:15.535Z,18.90
2019-03-19T09:52:44.687Z,19.70
2019-03-19T09:55:13.909Z,20.30
2019-03-19T09:57:43.033Z,20.20
2019-03-19T10:00:14.936Z,17.80
2019-03-19T10:02:43.743Z,17.90
2019-03-19T10:05:12.920Z,18.20
2019-03-19T10:07:41.771Z,18.60
2019-03-19T10:10:12.289Z,18.00
2019-03-19T10:12:41.016Z,17.20
2019-03-19T10:15:10.360Z,16.40
2019-03-19T10:17:39.093Z,15.90
2019-03-19T10:20:10.190Z,14.70
2019-03-19T10:22:38.960Z,13.30
2019-03-19T10:25:08.931Z,12.40
2019-03-19T10:27:37.991Z,12.30
2019-03-19T10:30:13.301Z,12.30
2019-03-19T10:32:42.079Z,12.00
2019-03-19T10:35:11.039Z,11.40
2019-03-19T10:37:39.792Z,10.70
2019-03-19T10:40:08.733Z,11.40
2019-03-19T10:42:37.594Z,12.20
2019-03-19T10:45:07.052Z,12.50
2019-03-19T10:47:35.807Z,12.10
2019-03-19T10:50:07.156Z,11.40
2019-03-19T10:52:35.893Z,11.50
2019-03-19T10:55:05.180Z,12.20
2019-03-19T10:57:33.916Z,12.50
2019-03-19T11:00:08.554Z,11.90
2019-03-19T11:02:37.672Z,12.30
2019-03-19T11:05:08.368Z,13.10
2019-03-19T11:07:37.186Z,13.50
2019-03-19T11:10:06.054Z,13.30
2019-03-19T11:12:34.792Z,12.80
2019-03-19T11:15:04.529Z,12.20
2019-03-19T11:17:33.328Z,12.30
2019-03-19T11:20:02.053Z,12.90
2019-03-19T11:22:33.268Z,13.70
2019-03-19T11:25:01.352Z,14.50
2019-03-19T11:27:30.084Z,14.90
2019-03-19T11:29:59.981Z,14.60
2019-03-19T11:32:28.977Z,14.30
2019-03-19T11:34:57.717Z,14.10
2019-03-19T11:37:26.532Z,13.90
2019-03-19T11:39:55.280Z,13.70
2019-03-19T11:42:24.064Z,13.90
2019-03-19T11:44:52.799Z,13.60
2019-03-19T11:47:21.868Z,13.00
2019-03-19T11:49:50.612Z,12.70
2019-03-19T11:52:19.351Z,12.00
2019-03-19T11:54:48.098Z,11.70
2019-03-19T11:57:16.903Z,11.50
2019-03-19T11:59:45.660Z,11.60
2019-03-19T12:02:25.386Z,11.40
2019-03-19T12:04:45.273Z,11.20
2019-03-19T12:07:14.338Z,11.20
2019-03-19T12:09:43.208Z,11.30
2019-03-19T12:12:12.013Z,11.50
2019-03-19T12:14:40.759Z,11.70
2019-03-19T12:17:09.623Z,11.90
2019-03-19T12:19:38.395Z,12.00
2019-03-19T12:22:07.677Z,11.90
2019-03-19T12:24:36.467Z,11.70
2019-03-19T12:27:05.276Z,11.70
2019-03-19T12:29:34.012Z,11.40
2019-03-19T12:32:02.811Z,11.50
2019-03-19T12:34:31.933Z,10.90
2019-03-19T12:37:00.684Z,10.90
2019-03-19T12:39:29.659Z,10.90
2019-03-19T12:41:58.463Z,11.00
2019-03-19T12:44:27.481Z,11.10
2019-03-19T12:46:56.248Z,11.10
2019-03-19T12:49:25.129Z,10.90
2019-03-19T12:51:53.948Z,10.90
2019-03-19T12:54:22.836Z,10.90
2019-03-19T12:56:51.648Z,10.90
2019-03-19T12:59:20.806Z,10.80
2019-03-19T13:01:49.957Z,10.80
2019-03-19T13:04:18.757Z,11.00
2019-03-19T13:06:47.487Z,11.00
2019-03-19T13:09:16.388Z,10.70
2019-03-19T13:11:45.405Z,10.50
2019-03-19T13:14:14.484Z,10.50
2019-03-19T13:16:43.233Z,10.40
2019-03-19T13:19:11.969Z,10.50
2019-03-19T13:21:40.825Z,10.50
2019-03-19T13:24:09.568Z,10.40
2019-03-19T13:26:38.746Z,10.40
2019-03-19T13:29:07.463Z,10.50
2019-03-19T13:31:36.277Z,10.50
2019-03-19T13:34:05.426Z,10.60
2019-03-19T13:36:34.191Z,10.50
2019-03-19T13:39:03.079Z,10.60
2019-03-19T13:41:32.097Z,10.80
2019-03-19T13:44:00.828Z,10.90
2019-03-19T13:46:29.612Z,10.80
2019-03-19T13:48:58.432Z,10.90
2019-03-19T13:51:27.263Z,10.80
2019-03-19T13:53:56.353Z,10.80
2019-03-19T13:56:25.117Z,10.70
2019-03-19T13:58:53.848Z,10.70
2019-03-19T14:01:22.700Z,10.70
2019-03-19T14:03:51.426Z,10.70
2019-03-19T14:06:20.152Z,10.60
2019-03-19T14:08:48.888Z,10.40
2019-03-19T14:11:17.874Z,10.40
2019-03-19T14:13:46.636Z,10.40
2019-03-19T14:16:15.365Z,10.40
2019-03-19T14:18:46.524Z,10.50
2019-03-19T14:21:15.303Z,10.50
2019-03-19T14:23:44.052Z,10.50
2019-03-19T14:26:13.252Z,10.60
2019-03-19T14:28:42.004Z,10.60
2019-03-19T14:31:10.826Z,10.60
2019-03-19T14:33:39.944Z,10.60
2019-03-19T14:36:10.335Z,10.60
2019-03-19T14:38:47.049Z,10.50
2019-03-19T14:41:10.064Z,10.50
2019-03-19T14:43:38.917Z,10.50
2019-03-19T14:46:07.636Z,10.40
2019-03-19T14:48:41.270Z,10.40
2019-03-19T14:51:07.518Z,10.50
2019-03-19T14:53:36.828Z,10.40
2019-03-19T14:56:05.700Z,10.40
2019-03-19T14:58:34.881Z,10.40
2019-03-19T15:01:03.861Z,10.50
2019-03-19T15:03:33.133Z,10.50
2019-03-19T15:06:01.999Z,10.40
2019-03-19T15:08:31.035Z,10.40
2019-03-19T15:10:59.798Z,10.40
2019-03-19T15:13:28.640Z,10.30
2019-03-19T15:15:57.379Z,10.30
2019-03-19T15:18:26.218Z,10.30
2019-03-19T15:20:55.360Z,10.40
2019-03-19T15:23:24.421Z,10.30
2019-03-19T15:25:53.524Z,10.30
2019-03-19T15:28:22.667Z,10.30
2019-03-19T15:30:51.490Z,10.20
2019-03-19T15:33:20.527Z,10.20
2019-03-19T15:35:49.616Z,10.40
2019-03-19T15:38:18.689Z,10.30
2019-03-19T15:40:47.704Z,10.30
2019-03-19T15:43:16.437Z,10.30
2019-03-19T15:45:45.265Z,10.20
2019-03-19T15:48:14.016Z,10.20
2019-03-19T15:50:42.771Z,10.10
2019-03-19T15:53:12.057Z,10.10
2019-03-19T15:55:40.913Z,10.10
2019-03-19T15:58:09.623Z,10.10
2019-03-19T16:00:38.532Z,10.00
2019-03-19T16:03:09.107Z,9.90
2019-03-19T16:05:42.978Z,9.90
2019-03-19T16:08:11.831Z,9.80
2019-03-19T16:10:40.590Z,9.80
2019-03-19T16:13:09.770Z,9.70
2019-03-19T16:15:38.595Z,9.60
2019-03-19T16:18:07.400Z,9.60
2019-03-19T16:20:36.423Z,9.50
2019-03-19T16:23:05.292Z,9.70
2019-03-19T16:25:34.042Z,9.80
2019-03-19T16:28:02.910Z,9.70
2019-03-19T16:30:31.753Z,9.50
2019-03-19T16:33:00.992Z,9.40
2019-03-19T16:35:30.048Z,9.30
2019-03-19T16:37:59.043Z,9.40
2019-03-19T16:40:28.330Z,9.40
2019-03-19T16:42:58.041Z,9.40
2019-03-19T16:45:27.181Z,9.30
2019-03-19T16:47:56.183Z,9.40
2019-03-19T16:50:25.298Z,9.40
2019-03-19T16:52:54.134Z,9.60
2019-03-19T16:55:23.003Z,9.60
2019-03-19T16:57:53.232Z,9.50
2019-03-19T17:00:22.458Z,9.30
2019-03-19T17:02:51.415Z,9.20
2019-03-19T17:05:20.603Z,9.10
2019-03-19T17:07:49.489Z,9.20
2019-03-19T17:10:18.756Z,9.10
2019-03-19T17:12:47.645Z,9.20
2019-03-19T17:15:19.111Z,9.00
2019-03-19T17:17:47.927Z,9.00
2019-03-19T17:20:16.752Z,8.90
2019-03-19T17:22:45.582Z,8.80
2019-03-19T17:25:15.693Z,8.80
2019-03-19T17:27:44.736Z,8.70
2019-03-19T17:30:17.354Z,8.70
2019-03-19T17:32:46.280Z,8.60
2019-03-19T17:35:15.120Z,8.50
2019-03-19T17:37:43.860Z,8.30
2019-03-19T17:40:12.780Z,8.20
2019-03-19T17:42:41.653Z,8.30
2019-03-19T17:45:11.027Z,8.10
2019-03-19T17:47:39.973Z,8.00
2019-03-19T17:50:11.665Z,8.00
2019-03-19T17:52:40.541Z,8.10
2019-03-19T17:55:10.177Z,7.90
2019-03-19T17:57:39.366Z,7.60
2019-03-19T18:00:10.145Z,7.40
2019-03-19T18:02:39.062Z,7.20
2019-03-19T18:05:08.124Z,7.00
2019-03-19T18:07:37.009Z,6.80
2019-03-19T18:10:07.644Z,6.60
2019-03-19T18:12:36.622Z,6.60
2019-03-19T18:15:06.412Z,6.60
2019-03-19T18:17:35.354Z,6.40
2019-03-19T18:20:04.779Z,6.30
2019-03-19T18:22:33.974Z,6.20
2019-03-19T18:25:02.794Z,6.10
2019-03-19T18:27:31.840Z,5.90
2019-03-19T18:30:01.993Z,6.00
2019-03-19T18:32:35.308Z,5.90
2019-03-19T18:35:02.069Z,5.80
2019-03-19T18:37:30.802Z,5.80
2019-03-19T18:39:59.564Z,5.70
2019-03-19T18:42:28.429Z,5.60
2019-03-19T18:44:57.462Z,5.60
2019-03-19T18:47:26.244Z,5.50
2019-03-19T18:49:55.273Z,5.40
2019-03-19T18:52:23.996Z,5.40
2019-03-19T18:54:53.464Z,5.40
2019-03-19T18:57:22.215Z,5.50
2019-03-19T18:59:51.004Z,5.40
2019-03-19T19:02:19.768Z,5.50
2019-03-19T19:04:48.513Z,5.30
2019-03-19T19:07:17.750Z,5.20
2019-03-19T19:09:46.555Z,5.00
2019-03-19T19:12:17.171Z,4.90
2019-03-19T19:14:46.385Z,4.80
2019-03-19T19:17:15.856Z,4.80
2019-03-19T19:19:44.608Z,4.80
2019-03-19T19:22:13.457Z,4.70
2019-03-19T19:24:42.871Z,4.70
2019-03-19T19:27:12.031Z,4.60
2019-03-19T19:29:40.781Z,4.50
2019-03-19T19:32:11.386Z,4.40
2019-03-19T19:34:40.258Z,4.30
2019-03-19T19:37:09.219Z,4.30
2019-03-19T19:39:37.999Z,4.20
2019-03-19T19:42:07.153Z,4.20
2019-03-19T19:44:36.145Z,4.10
2019-03-19T19:47:05.052Z,4.10
2019-03-19T19:49:34.894Z,4.00
2019-03-19T19:52:03.703Z,4.00
2019-03-19T19:54:32.475Z,3.90
2019-03-19T19:57:01.588Z,3.80
2019-03-19T19:59:30.416Z,3.70
2019-03-19T20:01:59.547Z,3.70
2019-03-19T20:04:28.640Z,3.70
2019-03-19T20:06:57.380Z,3.50
2019-03-19T20:09:26.409Z,3.50
2019-03-19T20:11:55.147Z,3.40
2019-03-19T20:14:24.153Z,3.30
2019-03-19T20:16:52.894Z,3.20
2019-03-19T20:19:21.712Z,3.10
2019-03-19T20:21:51.220Z,3.00
2019-03-19T20:24:19.969Z,3.00
2019-03-19T20:26:48.703Z,3.00
2019-03-19T20:29:17.457Z,2.90
2019-03-19T20:31:46.783Z,2.90
2019-03-19T20:34:15.543Z,2.80
2019-03-19T20:36:44.335Z,2.70
2019-03-19T20:39:13.377Z,2.60
2019-03-19T20:41:42.521Z,2.60
2019-03-19T20:44:11.343Z,2.50
2019-03-19T20:46:40.076Z,2.50
2019-03-19T20:49:09.132Z,2.50
2019-03-19T20:51:38.428Z,2.40
2019-03-19T20:54:08.382Z,2.40
2019-03-19T20:56:37.936Z,2.30
2019-03-19T20:59:07.146Z,2.30
2019-03-19T21:01:36.188Z,2.20
2019-03-19T21:04:05.132Z,2.20
2019-03-19T21:06:33.945Z,2.20
2019-03-19T21:09:02.693Z,2.20
2019-03-19T21:11:31.555Z,2.20
2019-03-19T21:14:00.297Z,2.20
2019-03-19T21:16:29.331Z,2.10
2019-03-19T21:18:58.661Z,2.10
2019-03-19T21:21:27.459Z,2.10
2019-03-19T21:23:56.187Z,2.10
2019-03-19T21:26:25.008Z,2.10
2019-03-19T21:28:54.199Z,2.10
2019-03-19T21:31:23.108Z,2.30
2019-03-19T21:33:52.215Z,2.10
2019-03-19T21:36:20.953Z,2.10
2019-03-19T21:38:50.113Z,2.00
2019-03-19T21:41:18.846Z,2.00
2019-03-19T21:43:47.725Z,1.80
2019-03-19T21:46:16.821Z,1.80
2019-03-19T21:48:45.640Z,1.70
2019-03-19T21:51:14.384Z,1.60
2019-03-19T21:53:43.128Z,1.70
2019-03-19T21:56:11.918Z,1.70
2019-03-19T21:58:40.679Z,1.60
2019-03-19T22:01:09.403Z,1.40
2019-03-19T22:03:38.150Z,1.30
2019-03-19T22:06:06.927Z,1.20
2019-03-19T22:08:35.959Z,1.10
2019-03-19T22:11:05.396Z,1.10
2019-03-19T22:13:34.194Z,1.20
2019-03-19T22:16:02.925Z,1.30
2019-03-19T22:18:31.845Z,1.30
2019-03-19T22:21:00.573Z,1.20
2019-03-19T22:23:29.404Z,1.10
2019-03-19T22:25:58.386Z,1.00
2019-03-19T22:28:27.439Z,0.90
2019-03-19T22:30:56.195Z,0.80
2019-03-19T22:33:25.011Z,0.70
2019-03-19T22:35:53.998Z,0.70
2019-03-19T22:38:22.735Z,0.60
2019-03-19T22:40:51.791Z,0.60
2019-03-19T22:43:20.609Z,0.60
2019-03-19T22:45:49.460Z,0.60
2019-03-19T22:48:18.199Z,0.60
2019-03-19T22:50:46.919Z,0.80
2019-03-19T22:53:15.665Z,0.70
2019-03-19T22:55:44.601Z,0.60
2019-03-19T22:58:13.352Z,0.50
2019-03-19T23:00:44.515Z,0.50
2019-03-19T23:03:13.555Z,0.40
2019-03-19T23:05:42.568Z,0.50
2019-03-19T23:08:11.757Z,0.50
2019-03-19T23:10:40.585Z,0.30
2019-03-19T23:13:11.715Z,0.20
2019-03-19T23:15:39.783Z,0.10
2019-03-19T23:18:09.006Z,0.00
2019-03-19T23:20:37.812Z,0.00
2019-03-19T23:23:06.940Z,0.00
2019-03-19T23:25:35.672Z,0.00
2019-03-19T23:28:05.072Z,-0.10
2019-03-19T23:30:34.259Z,-0.10
2019-03-19T23:33:03.039Z,0.00
2019-03-19T23:35:31.781Z,0.00
2019-03-19T23:38:00.516Z,0.00
2019-03-19T23:40:29.711Z,-0.10
2019-03-19T23:42:58.785Z,-0.10
2019-03-19T23:45:27.541Z,-0.10
2019-03-19T23:47:56.288Z,-0.10
2019-03-19T23:50:25.025Z,-0.10
2019-03-19T23:52:53.845Z,-0.10
2019-03-19T23:55:22.592Z,-0.10
2019-03-19T23:57:51.747Z,-0.20
